createdAt,value
2023-02-12T00:01:53.690Z,4.35
2023-02-12T00:04:25.967Z,4.35
2023-02-12T00:06:58.378Z,4.36
2023-02-12T00:09:30.849Z,4.35
2023-02-12T00:12:03.162Z,4.33
2023-02-12T00:14:35.855Z,4.31
2023-02-12T00:17:08.071Z,4.33
2023-02-12T00:19:40.755Z,4.34
2023-02-12T00:22:13.402Z,4.36
2023-02-12T00:24:45.901Z,4.37
2023-02-12T00:27:18.305Z,4.35
2023-02-12T00:29:50.704Z,4.35
2023-02-12T00:32:25.182Z,4.35
2023-02-12T00:34:57.820Z,4.34
2023-02-12T00:37:30.160Z,4.32
2023-02-12T00:40:05.508Z,4.31
2023-02-12T00:42:37.786Z,4.31
2023-02-12T00:45:11.526Z,4.33
2023-02-12T00:47:43.880Z,4.34
2023-02-12T00:50:16.364Z,4.35
2023-02-12T00:52:48.785Z,4.31
2023-02-12T00:55:22.416Z,4.29
2023-02-12T00:57:54.712Z,4.26
2023-02-12T01:00:27.531Z,4.27
2023-02-12T01:03:00.033Z,4.26
2023-02-12T01:05:32.609Z,4.27
2023-02-12T01:08:05.868Z,4.27
2023-02-12T01:10:38.234Z,4.27
2023-02-12T01:13:12.162Z,4.27
2023-02-12T01:15:45.332Z,4.29
2023-02-12T01:18:17.876Z,4.28
2023-02-12T01:20:50.323Z,4.26
2023-02-12T01:23:22.565Z,4.26
2023-02-12T01:25:55.292Z,4.29
2023-02-12T01:28:27.957Z,4.31
2023-02-12T01:31:00.451Z,4.30
2023-02-12T01:33:32.956Z,4.30
2023-02-12T01:36:05.503Z,4.31
2023-02-12T01:38:38.024Z,4.29
2023-02-12T01:41:13.238Z,4.28
2023-02-12T01:43:46.575Z,4.29
2023-02-12T01:46:19.445Z,4.30
2023-02-12T01:48:51.851Z,4.31
2023-02-12T01:51:25.539Z,4.31
2023-02-12T01:54:00.893Z,4.30
2023-02-12T01:56:34.506Z,4.27
2023-02-12T01:59:07.618Z,4.27
2023-02-12T02:01:40.194Z,4.27
2023-02-12T02:04:16.818Z,4.26
2023-02-12T02:06:52.833Z,4.28
2023-02-12T02:09:25.902Z,4.26
2023-02-12T02:12:18.390Z,4.19
2023-02-12T02:14:52.298Z,4.11
2023-02-12T02:17:37.748Z,4.07
2023-02-12T02:20:33.797Z,4.08
2023-02-12T02:23:35.225Z,4.06
2023-02-12T02:26:35.068Z,4.07
2023-02-12T02:29:31.753Z,4.08
2023-02-12T02:32:09.143Z,4.09
2023-02-12T02:34:49.417Z,4.09
2023-02-12T02:37:28.755Z,4.09
2023-02-12T02:40:06.960Z,4.08
2023-02-12T02:42:45.014Z,4.05
2023-02-12T02:45:21.985Z,4.03
2023-02-12T02:47:57.234Z,4.00
2023-02-12T02:50:31.987Z,3.96
2023-02-12T02:53:08.389Z,3.88
2023-02-12T02:55:45.385Z,3.86
2023-02-12T02:58:22.396Z,3.82
2023-02-12T03:01:00.476Z,3.81
2023-02-12T03:03:39.415Z,3.78
2023-02-12T03:06:16.612Z,3.73
2023-02-12T03:08:52.148Z,3.71
2023-02-12T03:11:28.015Z,3.72
2023-02-12T03:14:06.250Z,3.69
2023-02-12T03:16:45.393Z,3.67
2023-02-12T03:19:21.544Z,3.60
2023-02-12T03:21:59.967Z,3.57
2023-02-12T03:24:37.373Z,3.55
2023-02-12T03:27:15.004Z,3.54
2023-02-12T03:29:47.432Z,3.53
2023-02-12T03:32:31.632Z,3.52
2023-02-12T03:35:16.338Z,3.48
2023-02-12T03:37:58.657Z,3.44
2023-02-12T03:40:36.176Z,3.40
2023-02-12T03:43:16.163Z,3.39
2023-02-12T03:45:53.059Z,3.36
2023-02-12T03:48:30.280Z,3.32
2023-02-12T03:51:12.401Z,3.30
2023-02-12T03:53:44.791Z,3.30
2023-02-12T03:56:23.656Z,3.28
2023-02-12T03:58:56.036Z,3.26
2023-02-12T04:01:29.910Z,3.24
2023-02-12T04:04:04.802Z,3.22
2023-02-12T04:06:37.466Z,3.19
2023-02-12T04:09:13.766Z,3.17
2023-02-12T04:12:00.192Z,3.13
2023-02-12T04:14:42.518Z,3.10
2023-02-12T04:17:27.583Z,3.08
2023-02-12T04:20:11.701Z,3.06
2023-02-12T04:22:55.462Z,3.02
2023-02-12T04:25:44.509Z,2.98
2023-02-12T04:28:26.906Z,2.97
2023-02-12T04:31:05.144Z,2.96
2023-02-12T04:33:47.418Z,2.94
2023-02-12T04:36:26.306Z,2.92
2023-02-12T04:39:03.457Z,2.88
2023-02-12T04:41:36.249Z,2.84
2023-02-12T04:44:20.891Z,2.84
2023-02-12T04:46:53.727Z,2.83
2023-02-12T04:49:26.825Z,2.81
2023-02-12T04:51:59.498Z,2.77
2023-02-12T04:54:31.797Z,2.75
2023-02-12T04:57:04.317Z,2.75
2023-02-12T04:59:36.688Z,2.73
2023-02-12T05:02:08.846Z,2.70
2023-02-12T05:04:40.998Z,2.69
2023-02-12T05:07:13.530Z,2.69
2023-02-12T05:09:45.931Z,2.66
2023-02-12T05:12:19.293Z,2.64
2023-02-12T05:14:51.422Z,2.62
2023-02-12T05:17:24.826Z,2.60
2023-02-12T05:19:57.047Z,2.58
2023-02-12T05:22:29.202Z,2.57
2023-02-12T05:25:01.547Z,2.57
2023-02-12T05:27:34.961Z,2.53
2023-02-12T05:30:10.684Z,2.49
2023-02-12T05:32:42.994Z,2.49
2023-02-12T05:35:15.344Z,2.47
2023-02-12T05:37:47.504Z,2.46
2023-02-12T05:40:22.976Z,2.44
2023-02-12T05:42:55.044Z,2.41
2023-02-12T05:45:28.178Z,2.40
2023-02-12T05:48:00.394Z,2.39
2023-02-12T05:50:32.736Z,2.37
2023-02-12T05:53:05.302Z,2.36
2023-02-12T05:55:37.699Z,2.35
2023-02-12T05:58:11.006Z,2.34
2023-02-12T06:00:44.287Z,2.32
2023-02-12T06:03:16.656Z,2.30
2023-02-12T06:05:53.899Z,2.29
2023-02-12T06:08:26.490Z,2.27
2023-02-12T06:11:03.436Z,2.26
2023-02-12T06:13:36.052Z,2.25
2023-02-12T06:16:17.274Z,2.26
2023-02-12T06:18:50.117Z,2.24
2023-02-12T06:21:23.907Z,2.20
2023-02-12T06:23:56.530Z,2.19
2023-02-12T06:26:29.308Z,2.19
2023-02-12T06:29:02.210Z,2.18
2023-02-12T06:31:36.991Z,2.17
2023-02-12T06:34:12.470Z,2.18
2023-02-12T06:36:46.400Z,2.18
2023-02-12T06:39:19.445Z,2.17
2023-02-12T06:41:51.938Z,2.18
2023-02-12T06:44:24.362Z,2.20
2023-02-12T06:46:57.945Z,2.23
2023-02-12T06:49:30.508Z,2.26
2023-02-12T06:52:03.513Z,2.28
2023-02-12T06:54:36.004Z,2.33
2023-02-12T06:57:08.492Z,2.36
2023-02-12T06:59:40.929Z,2.42
2023-02-12T07:02:13.920Z,2.48
2023-02-12T07:04:46.228Z,2.56
2023-02-12T07:07:18.692Z,2.62
2023-02-12T07:09:51.235Z,2.67
2023-02-12T07:12:23.483Z,2.70
2023-02-12T07:14:55.848Z,2.73
2023-02-12T07:17:30.277Z,2.74
2023-02-12T07:20:02.670Z,2.78
2023-02-12T07:22:36.597Z,2.84
2023-02-12T07:25:09.424Z,2.92
2023-02-12T07:27:41.926Z,2.99
2023-02-12T07:30:15.875Z,3.06
2023-02-12T07:32:48.239Z,3.13
2023-02-12T07:35:20.607Z,3.19
2023-02-12T07:37:52.933Z,3.24
2023-02-12T07:40:25.224Z,3.31
2023-02-12T07:42:59.109Z,3.37
2023-02-12T07:45:31.443Z,3.45
2023-02-12T07:48:04.001Z,3.52
2023-02-12T07:50:36.373Z,3.59
2023-02-12T07:53:08.779Z,3.68
2023-02-12T07:55:41.104Z,3.77
2023-02-12T07:58:13.397Z,3.84
2023-02-12T08:00:45.730Z,3.93
2023-02-12T08:03:18.221Z,4.04
2023-02-12T08:05:50.539Z,4.11
2023-02-12T08:08:22.860Z,4.18
2023-02-12T08:10:56.806Z,4.25
2023-02-12T08:13:29.118Z,4.33
2023-02-12T08:16:05.199Z,4.43
2023-02-12T08:18:38.137Z,4.52
2023-02-12T08:21:12.722Z,4.62
2023-02-12T08:23:45.298Z,4.72
2023-02-12T08:26:19.846Z,4.80
2023-02-12T08:28:54.611Z,4.91
2023-02-12T08:31:28.882Z,4.98
2023-02-12T08:34:01.789Z,5.03
2023-02-12T08:36:39.223Z,5.09
2023-02-12T08:39:11.969Z,5.16
2023-02-12T08:41:44.574Z,5.22
2023-02-12T08:44:17.341Z,5.25
2023-02-12T08:46:51.424Z,5.29
2023-02-12T08:49:27.408Z,5.28
2023-02-12T08:52:02.715Z,5.30
2023-02-12T08:54:35.065Z,5.35
2023-02-12T08:57:07.330Z,5.38
2023-02-12T08:59:39.660Z,5.41
2023-02-12T09:02:13.279Z,5.45
2023-02-12T09:04:45.627Z,5.50
2023-02-12T09:07:18.077Z,5.55
2023-02-12T09:09:50.449Z,5.58
2023-02-12T09:12:23.001Z,5.62
2023-02-12T09:14:55.342Z,5.64
2023-02-12T09:17:28.797Z,5.69
2023-02-12T09:20:02.394Z,5.67
2023-02-12T09:22:38.217Z,5.66
2023-02-12T09:25:11.030Z,5.63
2023-02-12T09:27:43.388Z,5.62
2023-02-12T09:30:18.881Z,5.61
2023-02-12T09:32:51.204Z,5.60
2023-02-12T09:35:23.806Z,5.61
2023-02-12T09:37:56.466Z,5.61
2023-02-12T09:40:37.211Z,5.59
2023-02-12T09:43:20.971Z,5.58
2023-02-12T09:46:01.939Z,5.57
2023-02-12T09:48:55.116Z,5.58
2023-02-12T09:51:29.501Z,5.58
2023-02-12T09:54:07.639Z,5.61
2023-02-12T09:56:42.620Z,5.62
2023-02-12T09:59:32.990Z,5.61
2023-02-12T10:02:08.030Z,5.59
2023-02-12T10:04:51.595Z,5.54
2023-02-12T10:07:42.299Z,5.55
2023-02-12T10:10:28.808Z,5.56
2023-02-12T10:13:05.306Z,5.49
2023-02-12T10:15:47.481Z,5.46
2023-02-12T10:18:51.431Z,5.46
2023-02-12T10:21:37.869Z,5.47
2023-02-12T10:24:25.705Z,5.43
2023-02-12T10:27:01.631Z,5.46
2023-02-12T10:29:39.877Z,5.48
2023-02-12T10:32:20.803Z,5.47
2023-02-12T10:34:53.825Z,5.47
2023-02-12T10:37:41.187Z,5.48
2023-02-12T10:40:21.791Z,5.51
2023-02-12T10:42:55.524Z,5.52
2023-02-12T10:45:33.048Z,5.53
2023-02-12T10:48:12.542Z,5.50
2023-02-12T10:50:57.116Z,5.45
2023-02-12T10:53:34.335Z,5.43
2023-02-12T10:56:17.453Z,5.41
2023-02-12T10:58:59.511Z,5.41
2023-02-12T11:01:34.571Z,5.41
2023-02-12T11:07:09.859Z,5.31
2023-02-12T11:09:46.677Z,5.18
2023-02-12T11:12:32.244Z,5.13
2023-02-12T11:15:14.594Z,5.11
2023-02-12T11:17:57.520Z,5.09
2023-02-12T11:20:33.646Z,5.05
2023-02-12T11:23:08.042Z,4.98
2023-02-12T11:25:55.647Z,4.92
2023-02-12T11:28:29.003Z,4.88
2023-02-12T11:31:03.534Z,4.89
2023-02-12T11:33:38.074Z,4.90
2023-02-12T11:36:22.222Z,4.93
2023-02-12T11:38:56.393Z,4.92
2023-02-12T11:41:34.695Z,4.94
2023-02-12T11:44:14.007Z,4.96
2023-02-12T11:46:52.160Z,4.95
2023-02-12T11:49:28.541Z,4.90
2023-02-12T11:52:04.028Z,4.84
2023-02-12T11:54:41.896Z,4.78
2023-02-12T11:57:39.243Z,4.73
2023-02-12T12:00:18.813Z,4.68
2023-02-12T12:03:03.716Z,4.65
2023-02-12T12:05:41.775Z,4.62
2023-02-12T12:08:26.309Z,4.57
2023-02-12T12:11:04.086Z,4.55
2023-02-12T12:13:40.657Z,4.56
2023-02-12T12:16:34.157Z,4.57
2023-02-12T12:19:29.870Z,4.58
2023-02-12T12:22:10.130Z,4.61
2023-02-12T12:24:46.416Z,4.59
2023-02-12T12:27:42.621Z,4.60
2023-02-12T12:30:22.880Z,4.63
2023-02-12T12:32:59.278Z,4.65
2023-02-12T12:35:45.550Z,4.64
2023-02-12T12:38:29.503Z,4.59
2023-02-12T12:41:09.186Z,4.55
2023-02-12T12:43:52.213Z,4.54
2023-02-12T12:46:35.157Z,4.59
2023-02-12T12:49:30.255Z,4.58
2023-02-12T12:52:30.800Z,4.55
2023-02-12T12:55:24.165Z,4.52
2023-02-12T12:58:07.234Z,4.54
2023-02-12T13:00:50.932Z,4.56
2023-02-12T13:03:53.898Z,4.56
2023-02-12T13:06:52.815Z,4.52
2023-02-12T13:09:50.173Z,4.47
2023-02-12T13:12:44.562Z,4.40
2023-02-12T13:15:26.827Z,4.34
2023-02-12T13:18:05.594Z,4.30
2023-02-12T13:20:48.890Z,4.29
2023-02-12T13:23:26.976Z,4.30
2023-02-12T13:26:08.923Z,4.30
2023-02-12T13:28:43.933Z,4.31
2023-02-12T13:31:32.966Z,4.38
2023-02-12T13:34:08.905Z,4.40
2023-02-12T13:36:40.006Z,4.39
2023-02-12T13:39:24.068Z,4.37
2023-02-12T13:42:17.744Z,4.34
2023-02-12T13:45:01.309Z,4.29
2023-02-12T13:47:44.566Z,4.27
2023-02-12T13:50:43.092Z,4.22
2023-02-12T13:53:23.507Z,4.19
2023-02-12T13:56:07.340Z,4.14
2023-02-12T13:58:50.678Z,4.09
2023-02-12T14:01:43.309Z,4.01
2023-02-12T14:04:27.782Z,3.98
2023-02-12T14:07:03.507Z,3.96
2023-02-12T14:09:40.691Z,3.96
2023-02-12T14:12:16.451Z,3.99
2023-02-12T14:14:51.808Z,4.06
2023-02-12T14:17:54.085Z,4.06
2023-02-12T14:20:29.685Z,4.08
2023-02-12T14:23:20.078Z,4.10
2023-02-12T14:26:00.344Z,4.09
2023-02-12T14:28:44.099Z,4.07
2023-02-12T14:31:32.998Z,4.09
2023-02-12T14:34:52.140Z,4.09
2023-02-12T14:37:42.653Z,4.05
2023-02-12T14:40:47.247Z,3.98
2023-02-12T14:43:56.290Z,3.93
2023-02-12T14:46:49.764Z,3.89
2023-02-12T14:49:28.021Z,3.86
2023-02-12T14:52:05.149Z,3.84
2023-02-12T14:54:42.564Z,3.86
2023-02-12T14:57:25.308Z,3.83
2023-02-12T15:00:00.342Z,3.80
2023-02-12T15:02:36.820Z,3.81
2023-02-12T15:05:19.719Z,3.79
2023-02-12T15:07:58.488Z,3.77
2023-02-12T15:10:35.718Z,3.75
2023-02-12T15:13:19.663Z,3.76
2023-02-12T15:15:57.545Z,3.76
2023-02-12T15:18:43.769Z,3.74
2023-02-12T15:21:23.614Z,3.73
2023-02-12T15:24:05.822Z,3.76
2023-02-12T15:26:42.275Z,3.85
2023-02-12T15:29:25.522Z,3.88
2023-02-12T15:31:59.776Z,3.87
2023-02-12T15:34:36.301Z,3.88
2023-02-12T15:37:10.777Z,3.86
2023-02-12T15:39:48.186Z,3.83
2023-02-12T15:42:32.805Z,3.83
2023-02-12T15:45:24.487Z,3.81
2023-02-12T15:48:08.596Z,3.77
2023-02-12T15:50:50.802Z,3.76
2023-02-12T15:53:24.310Z,3.75
2023-02-12T15:55:56.914Z,3.78
2023-02-12T15:58:31.865Z,3.87
2023-02-12T16:01:07.694Z,3.91
2023-02-12T16:03:42.119Z,3.97
2023-02-12T16:06:16.952Z,4.03
2023-02-12T16:08:54.310Z,4.07
2023-02-12T16:11:29.753Z,4.11
2023-02-12T16:14:05.635Z,4.12
2023-02-12T16:16:49.072Z,4.13
2023-02-12T16:19:23.489Z,4.14
2023-02-12T16:22:01.826Z,4.14
2023-02-12T16:24:38.502Z,4.13
2023-02-12T16:27:19.092Z,4.13
2023-02-12T16:29:53.615Z,4.15
2023-02-12T16:32:37.469Z,4.21
2023-02-12T16:35:27.777Z,4.21
2023-02-12T16:38:04.861Z,4.22
2023-02-12T16:40:38.763Z,4.24
2023-02-12T16:43:28.449Z,4.25
2023-02-12T16:46:09.285Z,4.24
2023-02-12T16:48:44.254Z,4.24
2023-02-12T16:51:28.174Z,4.25
2023-02-12T16:54:01.869Z,4.25
2023-02-12T16:56:38.778Z,4.24
2023-02-12T16:59:12.029Z,4.21
2023-02-12T17:01:57.170Z,4.18
2023-02-12T17:04:28.010Z,4.18
2023-02-12T17:07:00.412Z,4.20
2023-02-12T17:09:32.579Z,4.18
2023-02-12T17:12:04.868Z,4.17
2023-02-12T17:14:37.069Z,4.19
2023-02-12T17:17:09.554Z,4.22
2023-02-12T17:19:42.093Z,4.25
2023-02-12T17:22:22.586Z,4.25
2023-02-12T17:24:54.856Z,4.25
2023-02-12T17:27:27.136Z,4.24
2023-02-12T17:29:59.298Z,4.21
2023-02-12T17:32:32.051Z,4.18
2023-02-12T17:35:06.201Z,4.16
2023-02-12T17:37:38.462Z,4.17
2023-02-12T17:40:15.373Z,4.22
2023-02-12T17:42:47.540Z,4.23
2023-02-12T17:45:20.010Z,4.22
2023-02-12T17:47:52.139Z,4.22
2023-02-12T17:50:24.424Z,4.23
2023-02-12T17:52:56.644Z,4.24
2023-02-12T17:55:28.905Z,4.23
2023-02-12T17:58:03.215Z,4.22
2023-02-12T18:00:35.432Z,4.19
2023-02-12T18:03:07.877Z,4.15
2023-02-12T18:05:45.907Z,4.11
2023-02-12T18:08:18.236Z,4.11
2023-02-12T18:10:50.445Z,4.18
2023-02-12T18:13:22.726Z,4.20
2023-02-12T18:15:55.021Z,4.22
2023-02-12T18:18:27.320Z,4.25
2023-02-12T18:20:59.751Z,4.26
2023-02-12T18:23:32.004Z,4.28
2023-02-12T18:26:08.217Z,4.27
2023-02-12T18:28:41.056Z,4.26
2023-02-12T18:31:13.983Z,4.28
2023-02-12T18:33:46.398Z,4.28
2023-02-12T18:36:20.560Z,4.27
2023-02-12T18:38:54.208Z,4.27
2023-02-12T18:41:28.365Z,4.34
2023-02-12T18:44:01.093Z,4.37
2023-02-12T18:46:34.043Z,4.38
2023-02-12T18:49:07.418Z,4.42
2023-02-12T18:51:41.299Z,4.44
2023-02-12T18:54:15.348Z,4.47
2023-02-12T18:56:50.776Z,4.49
2023-02-12T18:59:26.270Z,4.47
2023-02-12T19:01:59.521Z,4.45
2023-02-12T19:04:31.935Z,4.43
2023-02-12T19:07:04.066Z,4.40
2023-02-12T19:09:36.542Z,4.36
2023-02-12T19:12:11.211Z,4.36
2023-02-12T19:14:43.410Z,4.39
2023-02-12T19:17:15.599Z,4.40
2023-02-12T19:19:50.371Z,4.38
2023-02-12T19:22:22.775Z,4.38
2023-02-12T19:24:55.002Z,4.40
2023-02-12T19:27:27.188Z,4.42
2023-02-12T19:30:01.078Z,4.45
2023-02-12T19:32:33.563Z,4.46
2023-02-12T19:35:05.949Z,4.44
2023-02-12T19:37:38.187Z,4.44
2023-02-12T19:40:12.573Z,4.44
2023-02-12T19:42:44.749Z,4.43
2023-02-12T19:45:17.080Z,4.45
2023-02-12T19:47:50.921Z,4.54
2023-02-12T19:50:23.117Z,4.56
2023-02-12T19:52:55.263Z,4.59
2023-02-12T19:55:27.469Z,4.60
2023-02-12T19:57:59.763Z,4.61
2023-02-12T20:00:31.971Z,4.62
2023-02-12T20:03:04.290Z,4.64
2023-02-12T20:05:44.533Z,4.64
2023-02-12T20:08:16.716Z,4.61
2023-02-12T20:10:49.016Z,4.59
2023-02-12T20:13:22.660Z,4.56
2023-02-12T20:15:54.862Z,4.54
2023-02-12T20:18:26.975Z,4.53
2023-02-12T20:20:59.162Z,4.58
2023-02-12T20:23:31.275Z,4.58
2023-02-12T20:26:06.843Z,4.58
2023-02-12T20:28:39.741Z,4.58
2023-02-12T20:31:14.186Z,4.60
2023-02-12T20:33:47.154Z,4.63
2023-02-12T20:36:19.346Z,4.67
2023-02-12T20:38:56.992Z,4.70
2023-02-12T20:41:30.016Z,4.69
2023-02-12T20:44:04.211Z,4.69
2023-02-12T20:46:39.399Z,4.68
2023-02-12T20:49:13.921Z,4.65
2023-02-12T20:51:46.862Z,4.65
2023-02-12T20:54:19.306Z,4.70
2023-02-12T20:56:52.217Z,4.70
2023-02-12T20:59:24.622Z,4.71
2023-02-12T21:01:56.833Z,4.73
2023-02-12T21:04:31.754Z,4.76
2023-02-12T21:07:04.603Z,4.79
2023-02-12T21:09:36.796Z,4.83
2023-02-12T21:12:09.279Z,4.86
2023-02-12T21:14:41.646Z,4.84
2023-02-12T21:17:13.832Z,4.83
2023-02-12T21:19:46.103Z,4.83
2023-02-12T21:22:18.630Z,4.82
2023-02-12T21:24:50.874Z,4.83
2023-02-12T21:27:23.172Z,4.90
2023-02-12T21:29:55.416Z,4.91
2023-02-12T21:32:27.935Z,4.93
2023-02-12T21:35:00.288Z,4.94
2023-02-12T21:37:32.574Z,4.96
2023-02-12T21:40:05.069Z,4.97
2023-02-12T21:42:37.245Z,4.99
2023-02-12T21:45:11.836Z,4.97
2023-02-12T21:47:44.035Z,4.96
2023-02-12T21:50:16.372Z,4.94
2023-02-12T21:52:48.680Z,4.92
2023-02-12T21:55:20.927Z,4.93
2023-02-12T21:57:53.281Z,4.98
2023-02-12T22:00:25.990Z,4.97
2023-02-12T22:02:58.257Z,4.99
2023-02-12T22:05:34.521Z,4.99
2023-02-12T22:08:07.003Z,5.01
2023-02-12T22:10:39.807Z,5.03
2023-02-12T22:13:11.979Z,5.05
2023-02-12T22:15:44.168Z,5.07
2023-02-12T22:18:16.511Z,5.04
2023-02-12T22:20:48.706Z,5.03
2023-02-12T22:23:21.008Z,5.04
2023-02-12T22:25:53.555Z,5.01
2023-02-12T22:28:25.901Z,5.00
2023-02-12T22:30:58.376Z,5.04
2023-02-12T22:33:30.848Z,5.04
2023-02-12T22:36:05.958Z,5.04
2023-02-12T22:38:39.385Z,5.06
2023-02-12T22:41:12.197Z,5.08
2023-02-12T22:43:44.665Z,5.10
2023-02-12T22:46:17.826Z,5.11
2023-02-12T22:48:50.089Z,5.12
2023-02-12T22:51:26.684Z,5.11
2023-02-12T22:53:59.194Z,5.10
2023-02-12T22:56:31.472Z,5.07
2023-02-12T22:59:04.200Z,5.07
2023-02-12T23:01:36.407Z,5.12
2023-02-12T23:04:09.314Z,5.12
2023-02-12T23:06:41.575Z,5.14
2023-02-12T23:09:16.948Z,5.16
2023-02-12T23:11:49.982Z,5.20
2023-02-12T23:14:22.356Z,5.22
2023-02-12T23:16:54.779Z,5.23
2023-02-12T23:19:27.227Z,5.22
2023-02-12T23:21:59.559Z,5.22
2023-02-12T23:24:31.921Z,5.22
2023-02-12T23:27:04.146Z,5.21
2023-02-12T23:29:36.307Z,5.22
2023-02-12T23:32:08.894Z,5.29
2023-02-12T23:34:42.358Z,5.28
2023-02-12T23:37:14.481Z,5.28
2023-02-12T23:39:46.702Z,5.28
2023-02-12T23:42:19.233Z,5.29
2023-02-12T23:44:51.375Z,5.31
2023-02-12T23:47:23.491Z,5.28
2023-02-12T23:49:55.748Z,5.26
2023-02-12T23:52:27.956Z,5.25
2023-02-12T23:55:00.133Z,5.22
2023-02-12T23:57:32.319Z,5.21
